Merbes-le-Chateau, Belgium
Current Conditions -  °F | °C
As of 1:50 PM on Tuesday 21 Oct 2014 (Local Time) from EBCI Reporting Station
Light Rain Light Rain  
Wind Chill: 54°   Ceiling: 1300
Heat Index: 54°   Visibility: 4mi
Dew Point: 52°   Wind: 22mph
Humidity: 94%   Direction: 210°SSW
Pressure: 29.62"   Gusts: 33mph
Location:  50.32°N, 4.16°E
Report Text: EBCI 211150Z 21019G29KT 170V240 6000 -RADZ FEW006 BKN013 12/11 Q1003 NOSIG
Loading
Personal Weather Stations






























Interactive Weather Map
Tropical Storm Tracking
New forecast layout! Learn more

10-Day Weather Forecast

Advertisements
Track Severe Weather on mobile